sensor_id;sensor_type;location;lat;lon;timestamp;P1;durP1;ratioP1;P2;durP2;ratioP2
30380;SDS011;17169;50.966;11.038;2023-05-21T00:01:04;30.27;;;18.77;;
30380;SDS011;17169;50.966;11.038;2023-05-21T00:04:08;28.55;;;19.10;;
30380;SDS011;17169;50.966;11.038;2023-05-21T00:07:11;26.95;;;17.95;;
30380;SDS011;17169;50.966;11.038;2023-05-21T00:10:14;26.20;;;17.98;;
30380;SDS011;17169;50.966;11.038;2023-05-21T00:13:17;28.58;;;18.40;;
30380;SDS011;17169;50.966;11.038;2023-05-21T00:16:19;27.05;;;18.55;;
30380;SDS011;17169;50.966;11.038;2023-05-21T00:19:23;28.23;;;19.13;;
30380;SDS011;17169;50.966;11.038;2023-05-21T00:22:26;26.95;;;19.08;;
30380;SDS011;17169;50.966;11.038;2023-05-21T00:25:28;27.35;;;19.25;;
30380;SDS011;17169;50.966;11.038;2023-05-21T00:28:31;31.77;;;19.63;;
30380;SDS011;17169;50.966;11.038;2023-05-21T00:31:33;28.65;;;19.42;;
30380;SDS011;17169;50.966;11.038;2023-05-21T00:34:37;28.40;;;18.92;;
30380;SDS011;17169;50.966;11.038;2023-05-21T00:37:39;30.58;;;18.15;;
30380;SDS011;17169;50.966;11.038;2023-05-21T00:40:42;25.75;;;18.23;;
30380;SDS011;17169;50.966;11.038;2023-05-21T00:43:44;27.20;;;18.70;;
30380;SDS011;17169;50.966;11.038;2023-05-21T00:46:46;30.05;;;20.23;;
30380;SDS011;17169;50.966;11.038;2023-05-21T00:49:54;31.35;;;18.35;;
30380;SDS011;17169;50.966;11.038;2023-05-21T00:52:56;30.45;;;18.95;;
30380;SDS011;17169;50.966;11.038;2023-05-21T00:55:59;29.27;;;20.05;;
30380;SDS011;17169;50.966;11.038;2023-05-21T00:59:01;29.85;;;20.10;;
30380;SDS011;17169;50.966;11.038;2023-05-21T01:02:05;30.45;;;19.63;;
30380;SDS011;17169;50.966;11.038;2023-05-21T01:05:10;30.30;;;19.48;;
30380;SDS011;17169;50.966;11.038;2023-05-21T01:08:12;28.52;;;19.92;;
30380;SDS011;17169;50.966;11.038;2023-05-21T01:11:15;29.40;;;19.85;;
30380;SDS011;17169;50.966;11.038;2023-05-21T01:14:19;26.92;;;18.77;;
30380;SDS011;17169;50.966;11.038;2023-05-21T01:17:22;26.73;;;19.73;;
30380;SDS011;17169;50.966;11.038;2023-05-21T01:20:25;26.60;;;18.85;;
30380;SDS011;17169;50.966;11.038;2023-05-21T01:23:32;26.33;;;18.40;;
30380;SDS011;17169;50.966;11.038;2023-05-21T01:26:35;28.45;;;18.80;;
30380;SDS011;17169;50.966;11.038;2023-05-21T01:32:44;29.10;;;18.70;;
30380;SDS011;17169;50.966;11.038;2023-05-21T01:35:56;34.13;;;19.60;;
30380;SDS011;17169;50.966;11.038;2023-05-21T01:39:06;33.88;;;20.52;;
30380;SDS011;17169;50.966;11.038;2023-05-21T01:42:14;28.83;;;19.80;;
30380;SDS011;17169;50.966;11.038;2023-05-21T01:45:18;26.80;;;19.17;;
30380;SDS011;17169;50.966;11.038;2023-05-21T01:48:23;30.90;;;19.47;;
30380;SDS011;17169;50.966;11.038;2023-05-21T01:51:27;26.20;;;18.75;;
30380;SDS011;17169;50.966;11.038;2023-05-21T01:54:32;30.23;;;20.05;;
30380;SDS011;17169;50.966;11.038;2023-05-21T01:57:34;32.33;;;20.50;;
30380;SDS011;17169;50.966;11.038;2023-05-21T02:00:36;32.70;;;20.17;;
30380;SDS011;17169;50.966;11.038;2023-05-21T02:03:39;30.48;;;19.48;;
30380;SDS011;17169;50.966;11.038;2023-05-21T02:06:41;29.95;;;20.13;;
30380;SDS011;17169;50.966;11.038;2023-05-21T02:09:45;31.52;;;21.30;;
30380;SDS011;17169;50.966;11.038;2023-05-21T02:12:48;35.72;;;20.55;;
30380;SDS011;17169;50.966;11.038;2023-05-21T02:15:50;32.30;;;20.67;;
30380;SDS011;17169;50.966;11.038;2023-05-21T02:18:54;30.90;;;20.13;;
30380;SDS011;17169;50.966;11.038;2023-05-21T02:21:57;29.52;;;19.40;;
30380;SDS011;17169;50.966;11.038;2023-05-21T02:25:01;30.40;;;20.33;;
30380;SDS011;17169;50.966;11.038;2023-05-21T02:28:03;30.15;;;20.77;;
30380;SDS011;17169;50.966;11.038;2023-05-21T02:31:06;29.63;;;19.52;;
30380;SDS011;17169;50.966;11.038;2023-05-21T02:34:08;33.28;;;20.42;;
30380;SDS011;17169;50.966;11.038;2023-05-21T02:37:11;32.70;;;19.65;;
30380;SDS011;17169;50.966;11.038;2023-05-21T02:40:14;35.85;;;19.83;;
30380;SDS011;17169;50.966;11.038;2023-05-21T02:43:17;29.10;;;19.98;;
30380;SDS011;17169;50.966;11.038;2023-05-21T02:46:19;33.95;;;20.45;;
30380;SDS011;17169;50.966;11.038;2023-05-21T02:49:21;28.25;;;20.35;;
30380;SDS011;17169;50.966;11.038;2023-05-21T02:52:24;29.05;;;20.15;;
30380;SDS011;17169;50.966;11.038;2023-05-21T02:55:27;29.45;;;20.35;;
30380;SDS011;17169;50.966;11.038;2023-05-21T02:58:30;29.70;;;20.23;;
30380;SDS011;17169;50.966;11.038;2023-05-21T03:01:32;27.50;;;19.77;;
30380;SDS011;17169;50.966;11.038;2023-05-21T03:04:35;27.48;;;18.98;;
30380;SDS011;17169;50.966;11.038;2023-05-21T03:07:38;33.47;;;20.52;;
30380;SDS011;17169;50.966;11.038;2023-05-21T03:10:42;35.55;;;20.52;;
30380;SDS011;17169;50.966;11.038;2023-05-21T03:13:45;31.05;;;19.98;;
30380;SDS011;17169;50.966;11.038;2023-05-21T03:16:47;29.30;;;19.23;;
30380;SDS011;17169;50.966;11.038;2023-05-21T03:19:51;25.92;;;18.50;;
30380;SDS011;17169;50.966;11.038;2023-05-21T03:22:54;29.27;;;20.60;;
30380;SDS011;17169;50.966;11.038;2023-05-21T03:25:57;26.67;;;18.88;;
30380;SDS011;17169;50.966;11.038;2023-05-21T03:32:04;31.23;;;19.02;;
30380;SDS011;17169;50.966;11.038;2023-05-21T03:35:07;27.73;;;19.17;;
30380;SDS011;17169;50.966;11.038;2023-05-21T03:38:09;28.92;;;20.55;;
30380;SDS011;17169;50.966;11.038;2023-05-21T03:41:13;28.27;;;19.60;;
30380;SDS011;17169;50.966;11.038;2023-05-21T03:44:15;28.48;;;19.75;;
30380;SDS011;17169;50.966;11.038;2023-05-21T03:47:18;30.38;;;19.33;;
30380;SDS011;17169;50.966;11.038;2023-05-21T03:50:20;33.42;;;20.20;;
30380;SDS011;17169;50.966;11.038;2023-05-21T03:53:23;43.53;;;25.83;;
30380;SDS011;17169;50.966;11.038;2023-05-21T03:56:26;30.15;;;20.35;;
30380;SDS011;17169;50.966;11.038;2023-05-21T03:59:29;28.30;;;18.77;;
30380;SDS011;17169;50.966;11.038;2023-05-21T04:02:31;27.75;;;19.00;;
30380;SDS011;17169;50.966;11.038;2023-05-21T04:05:33;30.15;;;19.88;;
30380;SDS011;17169;50.966;11.038;2023-05-21T04:08:36;32.33;;;20.83;;
30380;SDS011;17169;50.966;11.038;2023-05-21T04:11:40;33.00;;;20.15;;
30380;SDS011;17169;50.966;11.038;2023-05-21T04:14:42;30.90;;;20.00;;
30380;SDS011;17169;50.966;11.038;2023-05-21T04:17:45;33.67;;;21.05;;
30380;SDS011;17169;50.966;11.038;2023-05-21T04:20:49;31.15;;;20.10;;
30380;SDS011;17169;50.966;11.038;2023-05-21T04:23:52;28.00;;;19.58;;
30380;SDS011;17169;50.966;11.038;2023-05-21T04:26:58;33.28;;;19.63;;
30380;SDS011;17169;50.966;11.038;2023-05-21T04:30:00;28.90;;;19.90;;
30380;SDS011;17169;50.966;11.038;2023-05-21T04:33:03;28.35;;;18.88;;
30380;SDS011;17169;50.966;11.038;2023-05-21T04:36:06;28.52;;;19.52;;
30380;SDS011;17169;50.966;11.038;2023-05-21T04:39:11;87.15;;;56.05;;
30380;SDS011;17169;50.966;11.038;2023-05-21T04:42:15;32.53;;;22.73;;
30380;SDS011;17169;50.966;11.038;2023-05-21T04:48:23;30.05;;;19.45;;
30380;SDS011;17169;50.966;11.038;2023-05-21T04:51:26;28.80;;;19.48;;
30380;SDS011;17169;50.966;11.038;2023-05-21T04:54:28;34.35;;;20.58;;
30380;SDS011;17169;50.966;11.038;2023-05-21T04:57:32;28.48;;;19.40;;
30380;SDS011;17169;50.966;11.038;2023-05-21T05:00:35;28.52;;;20.13;;
30380;SDS011;17169;50.966;11.038;2023-05-21T05:03:38;28.65;;;20.75;;
30380;SDS011;17169;50.966;11.038;2023-05-21T05:06:40;30.15;;;19.38;;
30380;SDS011;17169;50.966;11.038;2023-05-21T05:09:43;30.20;;;20.55;;
30380;SDS011;17169;50.966;11.038;2023-05-21T05:12:46;28.95;;;19.20;;
30380;SDS011;17169;50.966;11.038;2023-05-21T05:15:49;27.40;;;20.02;;
30380;SDS011;17169;50.966;11.038;2023-05-21T05:18:52;32.10;;;19.75;;
30380;SDS011;17169;50.966;11.038;2023-05-21T05:21:54;31.55;;;19.83;;
30380;SDS011;17169;50.966;11.038;2023-05-21T05:24:56;30.10;;;20.40;;
30380;SDS011;17169;50.966;11.038;2023-05-21T05:28:00;29.55;;;19.77;;
30380;SDS011;17169;50.966;11.038;2023-05-21T05:31:02;30.45;;;20.35;;
30380;SDS011;17169;50.966;11.038;2023-05-21T05:34:05;31.00;;;19.77;;
30380;SDS011;17169;50.966;11.038;2023-05-21T05:37:07;27.45;;;19.02;;
30380;SDS011;17169;50.966;11.038;2023-05-21T05:40:10;28.98;;;20.40;;
30380;SDS011;17169;50.966;11.038;2023-05-21T05:43:14;30.70;;;19.63;;
30380;SDS011;17169;50.966;11.038;2023-05-21T05:46:16;34.05;;;21.08;;
30380;SDS011;17169;50.966;11.038;2023-05-21T05:49:18;28.98;;;19.25;;
30380;SDS011;17169;50.966;11.038;2023-05-21T05:52:21;27.70;;;18.70;;
30380;SDS011;17169;50.966;11.038;2023-05-21T05:55:23;32.17;;;19.00;;
30380;SDS011;17169;50.966;11.038;2023-05-21T05:58:27;27.65;;;19.08;;
30380;SDS011;17169;50.966;11.038;2023-05-21T06:01:30;31.40;;;19.17;;
30380;SDS011;17169;50.966;11.038;2023-05-21T06:04:33;25.63;;;18.65;;
30380;SDS011;17169;50.966;11.038;2023-05-21T06:07:36;31.50;;;19.60;;
30380;SDS011;17169;50.966;11.038;2023-05-21T06:10:39;25.85;;;18.60;;
30380;SDS011;17169;50.966;11.038;2023-05-21T06:13:42;29.52;;;18.98;;
30380;SDS011;17169;50.966;11.038;2023-05-21T06:16:45;30.35;;;20.15;;
30380;SDS011;17169;50.966;11.038;2023-05-21T06:19:47;24.70;;;17.75;;
30380;SDS011;17169;50.966;11.038;2023-05-21T06:22:49;28.77;;;19.42;;
30380;SDS011;17169;50.966;11.038;2023-05-21T06:25:52;27.83;;;19.67;;
30380;SDS011;17169;50.966;11.038;2023-05-21T06:28:56;26.13;;;19.55;;
30380;SDS011;17169;50.966;11.038;2023-05-21T06:31:58;27.20;;;18.42;;
30380;SDS011;17169;50.966;11.038;2023-05-21T06:35:01;30.15;;;20.33;;
30380;SDS011;17169;50.966;11.038;2023-05-21T06:38:03;30.48;;;19.48;;
30380;SDS011;17169;50.966;11.038;2023-05-21T06:41:05;26.42;;;18.48;;
30380;SDS011;17169;50.966;11.038;2023-05-21T06:44:09;25.17;;;18.65;;
30380;SDS011;17169;50.966;11.038;2023-05-21T06:47:13;27.00;;;19.27;;
30380;SDS011;17169;50.966;11.038;2023-05-21T06:50:15;25.10;;;17.98;;
30380;SDS011;17169;50.966;11.038;2023-05-21T06:53:18;27.58;;;18.52;;
30380;SDS011;17169;50.966;11.038;2023-05-21T06:56:20;27.98;;;19.38;;
30380;SDS011;17169;50.966;11.038;2023-05-21T06:59:24;29.65;;;18.90;;
30380;SDS011;17169;50.966;11.038;2023-05-21T07:02:26;25.42;;;18.75;;
30380;SDS011;17169;50.966;11.038;2023-05-21T07:05:29;30.15;;;19.33;;
30380;SDS011;17169;50.966;11.038;2023-05-21T07:08:31;30.17;;;18.83;;
30380;SDS011;17169;50.966;11.038;2023-05-21T07:11:34;26.23;;;18.95;;
30380;SDS011;17169;50.966;11.038;2023-05-21T07:14:37;27.77;;;19.83;;
30380;SDS011;17169;50.966;11.038;2023-05-21T07:17:40;26.33;;;18.77;;
30380;SDS011;17169;50.966;11.038;2023-05-21T07:20:42;32.63;;;18.95;;
30380;SDS011;17169;50.966;11.038;2023-05-21T07:23:44;32.67;;;19.85;;
30380;SDS011;17169;50.966;11.038;2023-05-21T07:26:47;28.85;;;19.38;;
30380;SDS011;17169;50.966;11.038;2023-05-21T07:29:51;28.50;;;18.70;;
30380;SDS011;17169;50.966;11.038;2023-05-21T07:32:53;27.08;;;19.80;;
30380;SDS011;17169;50.966;11.038;2023-05-21T07:35:55;27.05;;;19.23;;
30380;SDS011;17169;50.966;11.038;2023-05-21T07:38:58;27.55;;;19.92;;
30380;SDS011;17169;50.966;11.038;2023-05-21T07:42:01;26.80;;;18.83;;
30380;SDS011;17169;50.966;11.038;2023-05-21T07:45:05;25.23;;;17.58;;
30380;SDS011;17169;50.966;11.038;2023-05-21T07:48:08;23.92;;;19.10;;
30380;SDS011;17169;50.966;11.038;2023-05-21T07:51:11;25.35;;;18.63;;
30380;SDS011;17169;50.966;11.038;2023-05-21T07:54:13;28.13;;;20.33;;
30380;SDS011;17169;50.966;11.038;2023-05-21T07:57:16;25.80;;;18.02;;
30380;SDS011;17169;50.966;11.038;2023-05-21T08:00:21;25.95;;;17.60;;
30380;SDS011;17169;50.966;11.038;2023-05-21T08:03:25;25.70;;;17.45;;
30380;SDS011;17169;50.966;11.038;2023-05-21T08:06:30;27.27;;;18.58;;
30380;SDS011;17169;50.966;11.038;2023-05-21T08:09:33;31.33;;;18.35;;
30380;SDS011;17169;50.966;11.038;2023-05-21T08:12:36;28.58;;;18.48;;
30380;SDS011;17169;50.966;11.038;2023-05-21T08:15:39;26.92;;;17.35;;
30380;SDS011;17169;50.966;11.038;2023-05-21T08:18:42;25.25;;;18.05;;
30380;SDS011;17169;50.966;11.038;2023-05-21T08:21:44;26.40;;;16.73;;
30380;SDS011;17169;50.966;11.038;2023-05-21T08:24:47;33.42;;;16.90;;
30380;SDS011;17169;50.966;11.038;2023-05-21T08:27:49;26.25;;;17.50;;
30380;SDS011;17169;50.966;11.038;2023-05-21T08:30:53;23.33;;;17.40;;
30380;SDS011;17169;50.966;11.038;2023-05-21T08:33:55;21.85;;;15.25;;
30380;SDS011;17169;50.966;11.038;2023-05-21T08:36:58;27.20;;;18.38;;
30380;SDS011;17169;50.966;11.038;2023-05-21T08:40:00;22.55;;;16.10;;
30380;SDS011;17169;50.966;11.038;2023-05-21T08:43:03;22.02;;;15.55;;
30380;SDS011;17169;50.966;11.038;2023-05-21T08:46:07;22.45;;;15.55;;
30380;SDS011;17169;50.966;11.038;2023-05-21T08:49:10;20.20;;;16.02;;
30380;SDS011;17169;50.966;11.038;2023-05-21T08:52:13;24.73;;;16.08;;
30380;SDS011;17169;50.966;11.038;2023-05-21T08:55:16;19.45;;;15.15;;
30380;SDS011;17169;50.966;11.038;2023-05-21T08:58:19;20.55;;;15.60;;
30380;SDS011;17169;50.966;11.038;2023-05-21T09:01:23;21.30;;;15.95;;
30380;SDS011;17169;50.966;11.038;2023-05-21T09:04:27;21.58;;;16.17;;
30380;SDS011;17169;50.966;11.038;2023-05-21T09:07:29;21.17;;;15.75;;
30380;SDS011;17169;50.966;11.038;2023-05-21T09:10:35;20.75;;;15.13;;
30380;SDS011;17169;50.966;11.038;2023-05-21T09:16:45;22.30;;;15.32;;
30380;SDS011;17169;50.966;11.038;2023-05-21T09:20:04;23.48;;;14.75;;
30380;SDS011;17169;50.966;11.038;2023-05-21T09:23:11;21.63;;;14.73;;
30380;SDS011;17169;50.966;11.038;2023-05-21T09:26:19;19.27;;;14.63;;
30380;SDS011;17169;50.966;11.038;2023-05-21T09:29:22;27.27;;;15.38;;
30380;SDS011;17169;50.966;11.038;2023-05-21T09:32:27;24.73;;;15.77;;
30380;SDS011;17169;50.966;11.038;2023-05-21T09:35:29;20.60;;;14.80;;
30380;SDS011;17169;50.966;11.038;2023-05-21T09:38:32;21.65;;;15.38;;
30380;SDS011;17169;50.966;11.038;2023-05-21T09:41:35;19.63;;;14.95;;
30380;SDS011;17169;50.966;11.038;2023-05-21T09:44:38;17.85;;;14.98;;
30380;SDS011;17169;50.966;11.038;2023-05-21T09:47:45;20.50;;;14.35;;
30380;SDS011;17169;50.966;11.038;2023-05-21T09:53:51;20.42;;;14.20;;
30380;SDS011;17169;50.966;11.038;2023-05-21T09:56:54;19.80;;;14.48;;
30380;SDS011;17169;50.966;11.038;2023-05-21T09:59:57;21.80;;;14.27;;
30380;SDS011;17169;50.966;11.038;2023-05-21T10:03:01;20.48;;;14.15;;
30380;SDS011;17169;50.966;11.038;2023-05-21T10:06:10;19.17;;;14.48;;
30380;SDS011;17169;50.966;11.038;2023-05-21T10:09:14;21.63;;;15.60;;
30380;SDS011;17169;50.966;11.038;2023-05-21T10:12:20;17.92;;;14.60;;
30380;SDS011;17169;50.966;11.038;2023-05-21T10:15:24;23.92;;;14.48;;
30380;SDS011;17169;50.966;11.038;2023-05-21T10:18:33;22.02;;;14.27;;
30380;SDS011;17169;50.966;11.038;2023-05-21T10:21:38;18.65;;;14.20;;
30380;SDS011;17169;50.966;11.038;2023-05-21T10:24:41;18.63;;;13.80;;
30380;SDS011;17169;50.966;11.038;2023-05-21T10:27:45;18.50;;;14.38;;
30380;SDS011;17169;50.966;11.038;2023-05-21T10:30:48;21.25;;;14.00;;
30380;SDS011;17169;50.966;11.038;2023-05-21T10:33:54;17.63;;;13.10;;
30380;SDS011;17169;50.966;11.038;2023-05-21T10:36:57;19.40;;;14.13;;
30380;SDS011;17169;50.966;11.038;2023-05-21T10:40:03;23.77;;;14.02;;
30380;SDS011;17169;50.966;11.038;2023-05-21T10:43:20;22.15;;;14.40;;
30380;SDS011;17169;50.966;11.038;2023-05-21T10:46:44;20.55;;;14.45;;
30380;SDS011;17169;50.966;11.038;2023-05-21T10:50:23;20.00;;;14.48;;
30380;SDS011;17169;50.966;11.038;2023-05-21T10:53:45;18.67;;;14.30;;
30380;SDS011;17169;50.966;11.038;2023-05-21T10:56:58;18.23;;;14.38;;
30380;SDS011;17169;50.966;11.038;2023-05-21T11:00:10;19.42;;;13.98;;
30380;SDS011;17169;50.966;11.038;2023-05-21T11:03:13;18.85;;;14.30;;
30380;SDS011;17169;50.966;11.038;2023-05-21T11:06:23;17.63;;;13.25;;
30380;SDS011;17169;50.966;11.038;2023-05-21T11:09:27;19.13;;;13.68;;
30380;SDS011;17169;50.966;11.038;2023-05-21T11:12:29;18.52;;;13.60;;
30380;SDS011;17169;50.966;11.038;2023-05-21T11:19:15;17.25;;;14.00;;
30380;SDS011;17169;50.966;11.038;2023-05-21T11:22:22;17.52;;;14.45;;
30380;SDS011;17169;50.966;11.038;2023-05-21T11:25:25;15.18;;;12.43;;
30380;SDS011;17169;50.966;11.038;2023-05-21T11:28:31;16.92;;;13.35;;
30380;SDS011;17169;50.966;11.038;2023-05-21T11:31:34;16.50;;;13.50;;
30380;SDS011;17169;50.966;11.038;2023-05-21T11:34:43;18.60;;;13.10;;
30380;SDS011;17169;50.966;11.038;2023-05-21T11:37:48;17.45;;;13.05;;
30380;SDS011;17169;50.966;11.038;2023-05-21T11:40:59;17.05;;;13.55;;
30380;SDS011;17169;50.966;11.038;2023-05-21T11:44:04;16.48;;;12.38;;
30380;SDS011;17169;50.966;11.038;2023-05-21T11:47:09;16.90;;;12.07;;
30380;SDS011;17169;50.966;11.038;2023-05-21T11:50:14;15.35;;;11.90;;
30380;SDS011;17169;50.966;11.038;2023-05-21T11:53:18;15.88;;;12.30;;
30380;SDS011;17169;50.966;11.038;2023-05-21T11:56:21;18.07;;;12.17;;
30380;SDS011;17169;50.966;11.038;2023-05-21T11:59:24;24.05;;;11.52;;
30380;SDS011;17169;50.966;11.038;2023-05-21T12:02:29;15.18;;;10.57;;
30380;SDS011;17169;50.966;11.038;2023-05-21T12:05:42;16.80;;;10.27;;
30380;SDS011;17169;50.966;11.038;2023-05-21T12:08:51;12.18;;;10.45;;
30380;SDS011;17169;50.966;11.038;2023-05-21T12:11:57;14.32;;;10.23;;
30380;SDS011;17169;50.966;11.038;2023-05-21T12:15:01;14.63;;;10.30;;
30380;SDS011;17169;50.966;11.038;2023-05-21T12:18:05;16.90;;;10.32;;
30380;SDS011;17169;50.966;11.038;2023-05-21T12:21:07;14.77;;;10.07;;
30380;SDS011;17169;50.966;11.038;2023-05-21T12:24:11;11.45;;;9.38;;
30380;SDS011;17169;50.966;11.038;2023-05-21T12:27:13;14.23;;;9.65;;
30380;SDS011;17169;50.966;11.038;2023-05-21T12:30:17;12.57;;;9.90;;
30380;SDS011;17169;50.966;11.038;2023-05-21T12:33:20;12.60;;;9.10;;
30380;SDS011;17169;50.966;11.038;2023-05-21T12:36:25;11.77;;;9.68;;
30380;SDS011;17169;50.966;11.038;2023-05-21T12:39:31;13.60;;;8.52;;
30380;SDS011;17169;50.966;11.038;2023-05-21T12:42:33;22.20;;;9.60;;
30380;SDS011;17169;50.966;11.038;2023-05-21T12:45:39;15.20;;;8.90;;
30380;SDS011;17169;50.966;11.038;2023-05-21T12:48:46;13.60;;;9.27;;
30380;SDS011;17169;50.966;11.038;2023-05-21T12:51:49;12.80;;;9.75;;
30380;SDS011;17169;50.966;11.038;2023-05-21T12:54:53;11.68;;;8.93;;
30380;SDS011;17169;50.966;11.038;2023-05-21T12:58:00;11.85;;;9.75;;
30380;SDS011;17169;50.966;11.038;2023-05-21T13:01:05;14.02;;;8.27;;
30380;SDS011;17169;50.966;11.038;2023-05-21T13:04:08;16.42;;;8.95;;
30380;SDS011;17169;50.966;11.038;2023-05-21T13:07:10;12.95;;;8.15;;
30380;SDS011;17169;50.966;11.038;2023-05-21T13:10:14;11.18;;;8.60;;
30380;SDS011;17169;50.966;11.038;2023-05-21T13:13:17;18.20;;;8.75;;
30380;SDS011;17169;50.966;11.038;2023-05-21T13:16:19;15.45;;;8.13;;
30380;SDS011;17169;50.966;11.038;2023-05-21T13:19:23;11.27;;;8.38;;
30380;SDS011;17169;50.966;11.038;2023-05-21T13:22:25;13.77;;;8.00;;
30380;SDS011;17169;50.966;11.038;2023-05-21T13:25:30;13.97;;;8.70;;
30380;SDS011;17169;50.966;11.038;2023-05-21T13:28:33;12.50;;;8.70;;
30380;SDS011;17169;50.966;11.038;2023-05-21T13:31:35;15.73;;;9.48;;
30380;SDS011;17169;50.966;11.038;2023-05-21T13:34:37;14.85;;;8.38;;
30380;SDS011;17169;50.966;11.038;2023-05-21T13:37:40;11.95;;;8.70;;
30380;SDS011;17169;50.966;11.038;2023-05-21T13:40:44;13.60;;;8.27;;
30380;SDS011;17169;50.966;11.038;2023-05-21T13:43:46;10.55;;;8.52;;
30380;SDS011;17169;50.966;11.038;2023-05-21T13:46:49;13.95;;;7.97;;
30380;SDS011;17169;50.966;11.038;2023-05-21T13:49:51;14.38;;;7.57;;
30380;SDS011;17169;50.966;11.038;2023-05-21T13:52:53;11.35;;;7.40;;
30380;SDS011;17169;50.966;11.038;2023-05-21T13:55:57;10.23;;;7.35;;
30380;SDS011;17169;50.966;11.038;2023-05-21T13:58:59;10.13;;;6.32;;
30380;SDS011;17169;50.966;11.038;2023-05-21T14:02:02;14.43;;;7.00;;
30380;SDS011;17169;50.966;11.038;2023-05-21T14:05:05;9.23;;;7.10;;
30380;SDS011;17169;50.966;11.038;2023-05-21T14:08:07;11.20;;;6.72;;
30380;SDS011;17169;50.966;11.038;2023-05-21T14:11:11;9.55;;;6.70;;
30380;SDS011;17169;50.966;11.038;2023-05-21T14:14:13;9.40;;;6.00;;
30380;SDS011;17169;50.966;11.038;2023-05-21T14:17:18;13.32;;;6.30;;
30380;SDS011;17169;50.966;11.038;2023-05-21T14:20:20;8.57;;;6.88;;
30380;SDS011;17169;50.966;11.038;2023-05-21T14:23:23;9.75;;;6.43;;
30380;SDS011;17169;50.966;11.038;2023-05-21T14:26:27;9.95;;;5.63;;
30380;SDS011;17169;50.966;11.038;2023-05-21T14:29:29;8.25;;;5.82;;
30380;SDS011;17169;50.966;11.038;2023-05-21T14:32:32;8.83;;;5.63;;
30380;SDS011;17169;50.966;11.038;2023-05-21T14:35:35;8.32;;;5.55;;
30380;SDS011;17169;50.966;11.038;2023-05-21T14:38:37;10.85;;;5.30;;
30380;SDS011;17169;50.966;11.038;2023-05-21T14:41:41;7.57;;;5.88;;
30380;SDS011;17169;50.966;11.038;2023-05-21T14:44:43;7.93;;;5.57;;
30380;SDS011;17169;50.966;11.038;2023-05-21T14:47:45;11.70;;;5.97;;
30380;SDS011;17169;50.966;11.038;2023-05-21T14:50:48;10.52;;;5.30;;
30380;SDS011;17169;50.966;11.038;2023-05-21T14:53:50;11.07;;;5.78;;
30380;SDS011;17169;50.966;11.038;2023-05-21T14:56:54;9.90;;;5.93;;
30380;SDS011;17169;50.966;11.038;2023-05-21T14:59:56;7.03;;;5.43;;
30380;SDS011;17169;50.966;11.038;2023-05-21T15:02:59;9.32;;;5.45;;
30380;SDS011;17169;50.966;11.038;2023-05-21T15:06:02;8.20;;;5.75;;
30380;SDS011;17169;50.966;11.038;2023-05-21T15:09:04;6.88;;;4.75;;
30380;SDS011;17169;50.966;11.038;2023-05-21T15:12:08;10.55;;;5.70;;
30380;SDS011;17169;50.966;11.038;2023-05-21T15:15:10;10.68;;;5.40;;
30380;SDS011;17169;50.966;11.038;2023-05-21T15:18:12;10.52;;;4.88;;
30380;SDS011;17169;50.966;11.038;2023-05-21T15:21:15;7.25;;;5.40;;
30380;SDS011;17169;50.966;11.038;2023-05-21T15:24:17;9.32;;;5.32;;
30380;SDS011;17169;50.966;11.038;2023-05-21T15:27:21;7.35;;;5.50;;
30380;SDS011;17169;50.966;11.038;2023-05-21T15:30:24;7.30;;;5.10;;
30380;SDS011;17169;50.966;11.038;2023-05-21T15:33:26;8.75;;;5.82;;
30380;SDS011;17169;50.966;11.038;2023-05-21T15:36:29;6.95;;;5.60;;
30380;SDS011;17169;50.966;11.038;2023-05-21T15:39:31;10.55;;;5.50;;
30380;SDS011;17169;50.966;11.038;2023-05-21T15:42:35;7.13;;;5.53;;
30380;SDS011;17169;50.966;11.038;2023-05-21T15:45:37;9.98;;;5.75;;
30380;SDS011;17169;50.966;11.038;2023-05-21T15:48:40;9.90;;;5.80;;
30380;SDS011;17169;50.966;11.038;2023-05-21T15:51:42;9.23;;;5.88;;
30380;SDS011;17169;50.966;11.038;2023-05-21T15:54:46;11.18;;;5.97;;
30380;SDS011;17169;50.966;11.038;2023-05-21T15:57:49;12.52;;;6.18;;
30380;SDS011;17169;50.966;11.038;2023-05-21T16:00:52;7.30;;;5.40;;
30380;SDS011;17169;50.966;11.038;2023-05-21T16:03:54;8.30;;;5.38;;
30380;SDS011;17169;50.966;11.038;2023-05-21T16:06:57;10.90;;;4.88;;
30380;SDS011;17169;50.966;11.038;2023-05-21T16:09:59;6.90;;;5.50;;
30380;SDS011;17169;50.966;11.038;2023-05-21T16:13:03;8.80;;;6.05;;
30380;SDS011;17169;50.966;11.038;2023-05-21T16:16:05;7.22;;;5.13;;
30380;SDS011;17169;50.966;11.038;2023-05-21T16:19:08;12.13;;;5.25;;
30380;SDS011;17169;50.966;11.038;2023-05-21T16:22:10;9.23;;;5.05;;
30380;SDS011;17169;50.966;11.038;2023-05-21T16:25:13;12.15;;;5.95;;
30380;SDS011;17169;50.966;11.038;2023-05-21T16:28:16;5.75;;;4.85;;
30380;SDS011;17169;50.966;11.038;2023-05-21T16:31:19;10.63;;;5.23;;
30380;SDS011;17169;50.966;11.038;2023-05-21T16:34:22;9.15;;;5.30;;
30380;SDS011;17169;50.966;11.038;2023-05-21T16:37:24;8.25;;;5.78;;
30380;SDS011;17169;50.966;11.038;2023-05-21T16:40:27;8.38;;;5.45;;
30380;SDS011;17169;50.966;11.038;2023-05-21T16:43:32;8.00;;;6.15;;
30380;SDS011;17169;50.966;11.038;2023-05-21T16:46:34;7.80;;;5.43;;
30380;SDS011;17169;50.966;11.038;2023-05-21T16:49:36;9.18;;;6.07;;
30380;SDS011;17169;50.966;11.038;2023-05-21T16:52:39;10.85;;;6.43;;
30380;SDS011;17169;50.966;11.038;2023-05-21T16:55:41;11.85;;;6.80;;
30380;SDS011;17169;50.966;11.038;2023-05-21T16:58:45;8.88;;;6.55;;
30380;SDS011;17169;50.966;11.038;2023-05-21T17:01:47;9.73;;;6.90;;
30380;SDS011;17169;50.966;11.038;2023-05-21T17:04:50;12.88;;;7.60;;
30380;SDS011;17169;50.966;11.038;2023-05-21T17:07:52;10.85;;;7.28;;
30380;SDS011;17169;50.966;11.038;2023-05-21T17:10:54;12.95;;;8.70;;
30380;SDS011;17169;50.966;11.038;2023-05-21T17:13:59;16.55;;;7.68;;
30380;SDS011;17169;50.966;11.038;2023-05-21T17:17:01;18.90;;;8.68;;
30380;SDS011;17169;50.966;11.038;2023-05-21T17:20:04;12.05;;;8.32;;
30380;SDS011;17169;50.966;11.038;2023-05-21T17:23:07;10.75;;;8.18;;
30380;SDS011;17169;50.966;11.038;2023-05-21T17:26:10;13.75;;;7.97;;
30380;SDS011;17169;50.966;11.038;2023-05-21T17:29:14;12.45;;;8.20;;
30380;SDS011;17169;50.966;11.038;2023-05-21T17:32:17;16.95;;;7.82;;
30380;SDS011;17169;50.966;11.038;2023-05-21T17:35:20;11.00;;;8.00;;
30380;SDS011;17169;50.966;11.038;2023-05-21T17:38:22;10.63;;;7.95;;
30380;SDS011;17169;50.966;11.038;2023-05-21T17:41:25;14.63;;;8.30;;
30380;SDS011;17169;50.966;11.038;2023-05-21T17:44:28;17.02;;;8.80;;
30380;SDS011;17169;50.966;11.038;2023-05-21T17:47:31;13.70;;;8.40;;
30380;SDS011;17169;50.966;11.038;2023-05-21T17:50:33;11.30;;;7.95;;
30380;SDS011;17169;50.966;11.038;2023-05-21T17:53:36;12.48;;;8.88;;
30380;SDS011;17169;50.966;11.038;2023-05-21T17:56:38;15.90;;;7.95;;
30380;SDS011;17169;50.966;11.038;2023-05-21T17:59:42;13.45;;;8.23;;
30380;SDS011;17169;50.966;11.038;2023-05-21T18:02:45;13.75;;;8.70;;